sensor_id;sensor_type;location;lat;lon;timestamp;P1;durP1;ratioP1;P2;durP2;ratioP2
58338;SDS011;48278;52.704;6.536;2022-10-16T00:01:35;8.35;;;1.40;;
58338;SDS011;48278;52.704;6.536;2022-10-16T00:04:01;6.78;;;1.27;;
58338;SDS011;48278;52.704;6.536;2022-10-16T00:06:27;5.60;;;1.48;;
58338;SDS011;48278;52.704;6.536;2022-10-16T00:08:53;7.45;;;1.40;;
58338;SDS011;48278;52.704;6.536;2022-10-16T00:11:24;6.20;;;1.42;;
58338;SDS011;48278;52.704;6.536;2022-10-16T00:13:54;9.60;;;1.38;;
58338;SDS011;48278;52.704;6.536;2022-10-16T00:16:22;7.90;;;1.70;;
58338;SDS011;48278;52.704;6.536;2022-10-16T00:18:47;6.57;;;1.20;;
58338;SDS011;48278;52.704;6.536;2022-10-16T00:21:14;6.10;;;1.63;;
58338;SDS011;48278;52.704;6.536;2022-10-16T00:23:42;8.82;;;1.83;;
58338;SDS011;48278;52.704;6.536;2022-10-16T00:26:09;9.65;;;1.52;;
58338;SDS011;48278;52.704;6.536;2022-10-16T00:28:37;9.15;;;2.28;;
58338;SDS011;48278;52.704;6.536;2022-10-16T00:31:06;7.13;;;1.50;;
58338;SDS011;48278;52.704;6.536;2022-10-16T00:33:34;5.13;;;1.60;;
58338;SDS011;48278;52.704;6.536;2022-10-16T00:36:01;5.90;;;1.85;;
58338;SDS011;48278;52.704;6.536;2022-10-16T00:38:28;7.78;;;1.60;;
58338;SDS011;48278;52.704;6.536;2022-10-16T00:40:54;6.30;;;1.52;;
58338;SDS011;48278;52.704;6.536;2022-10-16T00:46:10;9.57;;;2.00;;
58338;SDS011;48278;52.704;6.536;2022-10-16T00:48:39;9.43;;;1.92;;
58338;SDS011;48278;52.704;6.536;2022-10-16T00:51:06;7.15;;;1.80;;
58338;SDS011;48278;52.704;6.536;2022-10-16T00:53:33;11.07;;;1.95;;
58338;SDS011;48278;52.704;6.536;2022-10-16T00:55:59;6.38;;;1.83;;
58338;SDS011;48278;52.704;6.536;2022-10-16T00:58:26;10.32;;;1.90;;
58338;SDS011;48278;52.704;6.536;2022-10-16T01:00:52;7.47;;;2.20;;
58338;SDS011;48278;52.704;6.536;2022-10-16T01:03:22;10.43;;;1.90;;
58338;SDS011;48278;52.704;6.536;2022-10-16T01:05:59;10.27;;;2.13;;
58338;SDS011;48278;52.704;6.536;2022-10-16T01:14:03;8.13;;;2.20;;
58338;SDS011;48278;52.704;6.536;2022-10-16T01:16:50;9.00;;;2.25;;
58338;SDS011;48278;52.704;6.536;2022-10-16T01:19:31;6.07;;;2.05;;
58338;SDS011;48278;52.704;6.536;2022-10-16T01:22:00;7.03;;;2.13;;
58338;SDS011;48278;52.704;6.536;2022-10-16T01:24:40;9.65;;;2.20;;
58338;SDS011;48278;52.704;6.536;2022-10-16T01:33:00;9.32;;;2.67;;
58338;SDS011;48278;52.704;6.536;2022-10-16T01:35:37;8.25;;;2.08;;
58338;SDS011;48278;52.704;6.536;2022-10-16T01:38:21;8.48;;;2.63;;
58338;SDS011;48278;52.704;6.536;2022-10-16T01:41:00;6.65;;;2.15;;
58338;SDS011;48278;52.704;6.536;2022-10-16T01:43:33;7.57;;;2.38;;
58338;SDS011;48278;52.704;6.536;2022-10-16T01:46:03;10.70;;;2.78;;
58338;SDS011;48278;52.704;6.536;2022-10-16T01:51:03;9.30;;;2.72;;
58338;SDS011;48278;52.704;6.536;2022-10-16T01:53:31;7.93;;;2.40;;
58338;SDS011;48278;52.704;6.536;2022-10-16T01:55:58;8.07;;;2.30;;
58338;SDS011;48278;52.704;6.536;2022-10-16T01:58:26;7.25;;;2.30;;
58338;SDS011;48278;52.704;6.536;2022-10-16T02:00:55;7.10;;;2.80;;
58338;SDS011;48278;52.704;6.536;2022-10-16T02:03:22;8.32;;;2.47;;
58338;SDS011;48278;52.704;6.536;2022-10-16T02:05:50;8.43;;;2.95;;
58338;SDS011;48278;52.704;6.536;2022-10-16T02:08:19;8.25;;;2.42;;
58338;SDS011;48278;52.704;6.536;2022-10-16T02:10:47;8.52;;;2.60;;
58338;SDS011;48278;52.704;6.536;2022-10-16T02:13:23;7.88;;;2.50;;
58338;SDS011;48278;52.704;6.536;2022-10-16T02:15:55;8.57;;;2.30;;
58338;SDS011;48278;52.704;6.536;2022-10-16T02:18:20;12.23;;;2.25;;
58338;SDS011;48278;52.704;6.536;2022-10-16T02:20:55;8.77;;;2.40;;
58338;SDS011;48278;52.704;6.536;2022-10-16T02:26:28;8.88;;;2.50;;
58338;SDS011;48278;52.704;6.536;2022-10-16T02:29:00;8.38;;;2.28;;
58338;SDS011;48278;52.704;6.536;2022-10-16T02:31:31;8.50;;;2.38;;
58338;SDS011;48278;52.704;6.536;2022-10-16T02:33:59;8.05;;;2.47;;
58338;SDS011;48278;52.704;6.536;2022-10-16T02:36:30;6.65;;;2.38;;
58338;SDS011;48278;52.704;6.536;2022-10-16T02:38:57;9.02;;;2.22;;
58338;SDS011;48278;52.704;6.536;2022-10-16T02:41:25;7.35;;;2.10;;
58338;SDS011;48278;52.704;6.536;2022-10-16T02:43:51;7.15;;;2.17;;
58338;SDS011;48278;52.704;6.536;2022-10-16T02:46:16;10.68;;;1.95;;
58338;SDS011;48278;52.704;6.536;2022-10-16T02:48:43;6.15;;;2.10;;
58338;SDS011;48278;52.704;6.536;2022-10-16T02:51:09;9.25;;;2.13;;
58338;SDS011;48278;52.704;6.536;2022-10-16T02:53:34;6.68;;;2.00;;
58338;SDS011;48278;52.704;6.536;2022-10-16T02:56:00;5.70;;;2.20;;
58338;SDS011;48278;52.704;6.536;2022-10-16T02:58:26;7.20;;;2.08;;
58338;SDS011;48278;52.704;6.536;2022-10-16T03:00:52;6.68;;;2.10;;
58338;SDS011;48278;52.704;6.536;2022-10-16T03:03:17;7.45;;;2.15;;
58338;SDS011;48278;52.704;6.536;2022-10-16T03:05:43;4.90;;;1.90;;
58338;SDS011;48278;52.704;6.536;2022-10-16T03:08:11;10.05;;;2.50;;
58338;SDS011;48278;52.704;6.536;2022-10-16T03:10:37;6.47;;;2.22;;
58338;SDS011;48278;52.704;6.536;2022-10-16T03:13:03;5.63;;;2.13;;
58338;SDS011;48278;52.704;6.536;2022-10-16T03:15:29;8.77;;;2.55;;
58338;SDS011;48278;52.704;6.536;2022-10-16T03:17:57;6.60;;;2.55;;
58338;SDS011;48278;52.704;6.536;2022-10-16T03:20:23;6.90;;;2.22;;
58338;SDS011;48278;52.704;6.536;2022-10-16T03:22:49;7.20;;;2.60;;
58338;SDS011;48278;52.704;6.536;2022-10-16T03:25:15;7.43;;;2.50;;
58338;SDS011;48278;52.704;6.536;2022-10-16T03:27:41;14.82;;;2.75;;
58338;SDS011;48278;52.704;6.536;2022-10-16T03:30:07;8.32;;;2.42;;
58338;SDS011;48278;52.704;6.536;2022-10-16T03:32:33;6.85;;;2.40;;
58338;SDS011;48278;52.704;6.536;2022-10-16T03:34:59;5.85;;;1.88;;
58338;SDS011;48278;52.704;6.536;2022-10-16T03:37:24;7.22;;;2.45;;
58338;SDS011;48278;52.704;6.536;2022-10-16T03:39:50;6.30;;;2.30;;
58338;SDS011;48278;52.704;6.536;2022-10-16T03:42:16;6.95;;;2.47;;
58338;SDS011;48278;52.704;6.536;2022-10-16T03:44:42;8.77;;;2.63;;
58338;SDS011;48278;52.704;6.536;2022-10-16T03:47:08;9.90;;;2.83;;
58338;SDS011;48278;52.704;6.536;2022-10-16T03:49:33;6.13;;;2.45;;
58338;SDS011;48278;52.704;6.536;2022-10-16T03:51:59;8.00;;;2.65;;
58338;SDS011;48278;52.704;6.536;2022-10-16T03:54:25;5.90;;;2.35;;
58338;SDS011;48278;52.704;6.536;2022-10-16T03:56:50;9.27;;;2.85;;
58338;SDS011;48278;52.704;6.536;2022-10-16T03:59:16;8.68;;;3.40;;
58338;SDS011;48278;52.704;6.536;2022-10-16T04:01:42;7.68;;;3.00;;
58338;SDS011;48278;52.704;6.536;2022-10-16T04:04:08;7.53;;;3.05;;
58338;SDS011;48278;52.704;6.536;2022-10-16T04:06:33;16.20;;;3.70;;
58338;SDS011;48278;52.704;6.536;2022-10-16T04:08:59;8.80;;;3.28;;
58338;SDS011;48278;52.704;6.536;2022-10-16T04:11:25;8.25;;;3.08;;
58338;SDS011;48278;52.704;6.536;2022-10-16T04:13:50;6.45;;;2.65;;
58338;SDS011;48278;52.704;6.536;2022-10-16T04:16:16;9.68;;;2.65;;
58338;SDS011;48278;52.704;6.536;2022-10-16T04:18:42;12.10;;;3.35;;
58338;SDS011;48278;52.704;6.536;2022-10-16T04:21:07;10.27;;;3.40;;
58338;SDS011;48278;52.704;6.536;2022-10-16T04:23:33;10.13;;;3.15;;
58338;SDS011;48278;52.704;6.536;2022-10-16T04:25:59;10.70;;;3.50;;
58338;SDS011;48278;52.704;6.536;2022-10-16T04:28:25;8.20;;;3.50;;
58338;SDS011;48278;52.704;6.536;2022-10-16T04:30:51;7.63;;;3.17;;
58338;SDS011;48278;52.704;6.536;2022-10-16T04:33:17;8.80;;;3.60;;
58338;SDS011;48278;52.704;6.536;2022-10-16T04:35:43;8.32;;;3.33;;
58338;SDS011;48278;52.704;6.536;2022-10-16T04:38:09;11.18;;;3.50;;
58338;SDS011;48278;52.704;6.536;2022-10-16T04:40:34;11.00;;;3.00;;
58338;SDS011;48278;52.704;6.536;2022-10-16T04:43:03;9.50;;;3.25;;
58338;SDS011;48278;52.704;6.536;2022-10-16T04:45:30;7.32;;;3.17;;
58338;SDS011;48278;52.704;6.536;2022-10-16T04:47:58;10.60;;;3.60;;
58338;SDS011;48278;52.704;6.536;2022-10-16T04:50:24;8.52;;;3.80;;
58338;SDS011;48278;52.704;6.536;2022-10-16T04:52:50;8.90;;;3.30;;
58338;SDS011;48278;52.704;6.536;2022-10-16T04:55:16;6.70;;;3.25;;
58338;SDS011;48278;52.704;6.536;2022-10-16T04:57:42;8.45;;;3.15;;
58338;SDS011;48278;52.704;6.536;2022-10-16T05:00:08;9.35;;;3.95;;
58338;SDS011;48278;52.704;6.536;2022-10-16T05:02:34;9.45;;;3.80;;
58338;SDS011;48278;52.704;6.536;2022-10-16T05:05:00;7.20;;;3.08;;
58338;SDS011;48278;52.704;6.536;2022-10-16T05:07:25;8.52;;;3.60;;
58338;SDS011;48278;52.704;6.536;2022-10-16T05:09:51;11.38;;;3.90;;
58338;SDS011;48278;52.704;6.536;2022-10-16T05:12:17;9.15;;;3.70;;
58338;SDS011;48278;52.704;6.536;2022-10-16T05:14:43;7.35;;;3.65;;
58338;SDS011;48278;52.704;6.536;2022-10-16T05:17:08;9.57;;;3.33;;
58338;SDS011;48278;52.704;6.536;2022-10-16T05:19:34;10.73;;;3.92;;
58338;SDS011;48278;52.704;6.536;2022-10-16T05:22:00;9.25;;;3.28;;
58338;SDS011;48278;52.704;6.536;2022-10-16T05:24:25;10.65;;;3.17;;
58338;SDS011;48278;52.704;6.536;2022-10-16T05:26:51;8.38;;;3.53;;
58338;SDS011;48278;52.704;6.536;2022-10-16T05:29:17;9.93;;;3.53;;
58338;SDS011;48278;52.704;6.536;2022-10-16T05:31:43;8.25;;;3.15;;
58338;SDS011;48278;52.704;6.536;2022-10-16T05:34:09;8.07;;;3.25;;
58338;SDS011;48278;52.704;6.536;2022-10-16T05:36:35;8.98;;;3.88;;
58338;SDS011;48278;52.704;6.536;2022-10-16T05:39:01;7.95;;;3.22;;
58338;SDS011;48278;52.704;6.536;2022-10-16T05:41:26;18.85;;;3.60;;
58338;SDS011;48278;52.704;6.536;2022-10-16T05:43:52;9.68;;;3.50;;
58338;SDS011;48278;52.704;6.536;2022-10-16T05:46:18;6.72;;;3.13;;
58338;SDS011;48278;52.704;6.536;2022-10-16T05:48:44;9.05;;;3.22;;
58338;SDS011;48278;52.704;6.536;2022-10-16T05:51:11;10.48;;;2.85;;
58338;SDS011;48278;52.704;6.536;2022-10-16T05:53:39;9.57;;;3.20;;
58338;SDS011;48278;52.704;6.536;2022-10-16T05:56:06;8.23;;;3.10;;
58338;SDS011;48278;52.704;6.536;2022-10-16T05:58:34;8.27;;;3.00;;
58338;SDS011;48278;52.704;6.536;2022-10-16T06:01:02;7.80;;;3.20;;
58338;SDS011;48278;52.704;6.536;2022-10-16T06:03:34;7.47;;;3.03;;
58338;SDS011;48278;52.704;6.536;2022-10-16T06:06:07;7.73;;;2.97;;
58338;SDS011;48278;52.704;6.536;2022-10-16T06:08:34;7.18;;;2.72;;
58338;SDS011;48278;52.704;6.536;2022-10-16T06:11:03;5.97;;;2.63;;
58338;SDS011;48278;52.704;6.536;2022-10-16T06:13:31;8.65;;;2.55;;
58338;SDS011;48278;52.704;6.536;2022-10-16T06:15:57;7.20;;;2.70;;
58338;SDS011;48278;52.704;6.536;2022-10-16T06:18:24;7.50;;;2.70;;
58338;SDS011;48278;52.704;6.536;2022-10-16T06:20:50;11.00;;;2.53;;
58338;SDS011;48278;52.704;6.536;2022-10-16T06:23:16;8.57;;;2.45;;
58338;SDS011;48278;52.704;6.536;2022-10-16T06:25:41;8.27;;;2.20;;
58338;SDS011;48278;52.704;6.536;2022-10-16T06:28:07;8.75;;;2.60;;
58338;SDS011;48278;52.704;6.536;2022-10-16T06:30:33;5.40;;;2.25;;
58338;SDS011;48278;52.704;6.536;2022-10-16T06:32:58;12.52;;;2.83;;
58338;SDS011;48278;52.704;6.536;2022-10-16T06:35:24;8.05;;;2.58;;
58338;SDS011;48278;52.704;6.536;2022-10-16T06:37:50;8.90;;;2.50;;
58338;SDS011;48278;52.704;6.536;2022-10-16T06:40:18;5.07;;;2.17;;
58338;SDS011;48278;52.704;6.536;2022-10-16T06:42:44;11.18;;;2.42;;
58338;SDS011;48278;52.704;6.536;2022-10-16T06:45:10;7.53;;;2.35;;
58338;SDS011;48278;52.704;6.536;2022-10-16T06:47:35;6.45;;;2.30;;
58338;SDS011;48278;52.704;6.536;2022-10-16T06:50:01;6.78;;;2.35;;
58338;SDS011;48278;52.704;6.536;2022-10-16T06:52:28;4.75;;;2.22;;
58338;SDS011;48278;52.704;6.536;2022-10-16T06:54:54;6.80;;;2.00;;
58338;SDS011;48278;52.704;6.536;2022-10-16T06:57:20;5.60;;;2.10;;
58338;SDS011;48278;52.704;6.536;2022-10-16T06:59:46;5.03;;;1.95;;
58338;SDS011;48278;52.704;6.536;2022-10-16T07:02:12;7.93;;;1.73;;
58338;SDS011;48278;52.704;6.536;2022-10-16T07:04:38;7.95;;;1.60;;
58338;SDS011;48278;52.704;6.536;2022-10-16T07:07:03;6.75;;;1.90;;
58338;SDS011;48278;52.704;6.536;2022-10-16T07:09:29;5.00;;;2.00;;
58338;SDS011;48278;52.704;6.536;2022-10-16T07:11:55;6.32;;;2.05;;
58338;SDS011;48278;52.704;6.536;2022-10-16T07:14:21;7.57;;;2.03;;
58338;SDS011;48278;52.704;6.536;2022-10-16T07:16:47;6.43;;;1.80;;
58338;SDS011;48278;52.704;6.536;2022-10-16T07:19:13;7.35;;;1.70;;
58338;SDS011;48278;52.704;6.536;2022-10-16T07:21:42;7.57;;;1.80;;
58338;SDS011;48278;52.704;6.536;2022-10-16T07:24:13;7.20;;;1.60;;
58338;SDS011;48278;52.704;6.536;2022-10-16T07:26:40;9.13;;;2.05;;
58338;SDS011;48278;52.704;6.536;2022-10-16T07:29:18;6.63;;;1.98;;
58338;SDS011;48278;52.704;6.536;2022-10-16T07:31:45;7.43;;;1.80;;
58338;SDS011;48278;52.704;6.536;2022-10-16T07:34:12;4.53;;;1.48;;
58338;SDS011;48278;52.704;6.536;2022-10-16T07:36:39;6.40;;;1.52;;
58338;SDS011;48278;52.704;6.536;2022-10-16T07:39:05;8.07;;;1.60;;
58338;SDS011;48278;52.704;6.536;2022-10-16T07:41:31;8.63;;;2.10;;
58338;SDS011;48278;52.704;6.536;2022-10-16T07:43:58;4.78;;;1.40;;
58338;SDS011;48278;52.704;6.536;2022-10-16T07:46:25;10.27;;;1.90;;
58338;SDS011;48278;52.704;6.536;2022-10-16T07:48:52;7.35;;;1.38;;
58338;SDS011;48278;52.704;6.536;2022-10-16T07:51:18;7.38;;;1.10;;
58338;SDS011;48278;52.704;6.536;2022-10-16T07:53:46;6.10;;;1.50;;
58338;SDS011;48278;52.704;6.536;2022-10-16T07:56:12;4.50;;;1.00;;
58338;SDS011;48278;52.704;6.536;2022-10-16T07:58:39;6.18;;;0.90;;
58338;SDS011;48278;52.704;6.536;2022-10-16T08:01:14;3.40;;;1.00;;
58338;SDS011;48278;52.704;6.536;2022-10-16T08:03:41;6.03;;;1.53;;
58338;SDS011;48278;52.704;6.536;2022-10-16T08:08:33;2.77;;;0.73;;
58338;SDS011;48278;52.704;6.536;2022-10-16T08:11:00;4.47;;;0.90;;
58338;SDS011;48278;52.704;6.536;2022-10-16T08:13:28;5.75;;;1.25;;
58338;SDS011;48278;52.704;6.536;2022-10-16T08:15:55;5.30;;;1.05;;
58338;SDS011;48278;52.704;6.536;2022-10-16T08:18:21;3.40;;;1.10;;
58338;SDS011;48278;52.704;6.536;2022-10-16T08:20:47;5.07;;;1.20;;
58338;SDS011;48278;52.704;6.536;2022-10-16T08:23:16;5.47;;;1.55;;
58338;SDS011;48278;52.704;6.536;2022-10-16T08:25:41;7.03;;;1.55;;
58338;SDS011;48278;52.704;6.536;2022-10-16T08:28:09;6.10;;;1.88;;
58338;SDS011;48278;52.704;6.536;2022-10-16T08:30:36;7.72;;;2.35;;
58338;SDS011;48278;52.704;6.536;2022-10-16T08:33:02;9.73;;;2.20;;
58338;SDS011;48278;52.704;6.536;2022-10-16T08:35:29;7.50;;;1.93;;
58338;SDS011;48278;52.704;6.536;2022-10-16T08:37:54;9.43;;;1.90;;
58338;SDS011;48278;52.704;6.536;2022-10-16T08:40:38;6.22;;;1.58;;
58338;SDS011;48278;52.704;6.536;2022-10-16T08:48:53;8.35;;;1.73;;
58338;SDS011;48278;52.704;6.536;2022-10-16T08:51:23;5.95;;;1.48;;
58338;SDS011;48278;52.704;6.536;2022-10-16T08:56:22;7.82;;;1.75;;
58338;SDS011;48278;52.704;6.536;2022-10-16T08:58:48;5.45;;;1.27;;
58338;SDS011;48278;52.704;6.536;2022-10-16T09:01:16;7.97;;;1.60;;
58338;SDS011;48278;52.704;6.536;2022-10-16T09:09:31;7.80;;;1.20;;
58338;SDS011;48278;52.704;6.536;2022-10-16T09:12:31;5.28;;;0.95;;
58338;SDS011;48278;52.704;6.536;2022-10-16T09:17:49;5.47;;;0.98;;
58338;SDS011;48278;52.704;6.536;2022-10-16T09:23:16;7.70;;;1.20;;
58338;SDS011;48278;52.704;6.536;2022-10-16T09:25:53;9.80;;;1.00;;
58338;SDS011;48278;52.704;6.536;2022-10-16T09:28:20;8.90;;;0.77;;
58338;SDS011;48278;52.704;6.536;2022-10-16T09:30:47;6.00;;;0.70;;
58338;SDS011;48278;52.704;6.536;2022-10-16T09:33:14;8.43;;;0.82;;
58338;SDS011;48278;52.704;6.536;2022-10-16T09:38:09;7.40;;;0.80;;
58338;SDS011;48278;52.704;6.536;2022-10-16T09:40:50;10.05;;;1.40;;
58338;SDS011;48278;52.704;6.536;2022-10-16T09:46:26;6.60;;;1.05;;
58338;SDS011;48278;52.704;6.536;2022-10-16T09:48:59;6.32;;;0.93;;
58338;SDS011;48278;52.704;6.536;2022-10-16T09:51:32;8.98;;;0.80;;
58338;SDS011;48278;52.704;6.536;2022-10-16T09:56:35;15.30;;;1.05;;
58338;SDS011;48278;52.704;6.536;2022-10-16T10:01:51;11.52;;;1.00;;
58338;SDS011;48278;52.704;6.536;2022-10-16T10:04:18;6.57;;;0.90;;
58338;SDS011;48278;52.704;6.536;2022-10-16T10:06:46;12.40;;;0.93;;
58338;SDS011;48278;52.704;6.536;2022-10-16T10:09:32;9.20;;;0.85;;
58338;SDS011;48278;52.704;6.536;2022-10-16T10:12:06;5.75;;;0.70;;
58338;SDS011;48278;52.704;6.536;2022-10-16T10:14:49;6.60;;;0.90;;
58338;SDS011;48278;52.704;6.536;2022-10-16T10:17:23;11.93;;;0.90;;
58338;SDS011;48278;52.704;6.536;2022-10-16T10:20:38;7.40;;;0.85;;
58338;SDS011;48278;52.704;6.536;2022-10-16T10:22:50;9.15;;;0.95;;
58338;SDS011;48278;52.704;6.536;2022-10-16T10:28:10;9.13;;;0.88;;
58338;SDS011;48278;52.704;6.536;2022-10-16T10:37:10;11.02;;;0.80;;
58338;SDS011;48278;52.704;6.536;2022-10-16T10:40:27;9.13;;;0.90;;
58338;SDS011;48278;52.704;6.536;2022-10-16T10:42:39;7.70;;;0.80;;
58338;SDS011;48278;52.704;6.536;2022-10-16T10:45:48;7.30;;;0.98;;
58338;SDS011;48278;52.704;6.536;2022-10-16T10:53:35;8.88;;;0.80;;
58338;SDS011;48278;52.704;6.536;2022-10-16T11:01:39;10.07;;;0.82;;
58338;SDS011;48278;52.704;6.536;2022-10-16T11:07:00;8.43;;;1.00;;
58338;SDS011;48278;52.704;6.536;2022-10-16T11:09:36;11.77;;;1.15;;
58338;SDS011;48278;52.704;6.536;2022-10-16T11:20:18;7.90;;;0.95;;
58338;SDS011;48278;52.704;6.536;2022-10-16T11:22:50;10.05;;;1.00;;
58338;SDS011;48278;52.704;6.536;2022-10-16T11:25:30;11.23;;;1.00;;
58338;SDS011;48278;52.704;6.536;2022-10-16T11:27:58;9.85;;;1.00;;
58338;SDS011;48278;52.704;6.536;2022-10-16T11:30:46;7.80;;;1.07;;
58338;SDS011;48278;52.704;6.536;2022-10-16T11:38:33;11.40;;;1.20;;
58338;SDS011;48278;52.704;6.536;2022-10-16T11:41:22;12.35;;;1.00;;
58338;SDS011;48278;52.704;6.536;2022-10-16T11:46:47;11.20;;;1.40;;
58338;SDS011;48278;52.704;6.536;2022-10-16T11:49:24;10.40;;;1.05;;
58338;SDS011;48278;52.704;6.536;2022-10-16T11:51:57;8.77;;;0.73;;
58338;SDS011;48278;52.704;6.536;2022-10-16T11:57:19;8.00;;;0.85;;
58338;SDS011;48278;52.704;6.536;2022-10-16T11:59:51;8.57;;;0.80;;
58338;SDS011;48278;52.704;6.536;2022-10-16T12:02:38;7.93;;;0.93;;
58338;SDS011;48278;52.704;6.536;2022-10-16T12:05:13;11.02;;;0.80;;
58338;SDS011;48278;52.704;6.536;2022-10-16T12:07:56;7.20;;;0.68;;
58338;SDS011;48278;52.704;6.536;2022-10-16T12:10:27;7.65;;;0.80;;
58338;SDS011;48278;52.704;6.536;2022-10-16T12:12:56;11.38;;;0.70;;
58338;SDS011;48278;52.704;6.536;2022-10-16T12:15:29;6.85;;;0.90;;
58338;SDS011;48278;52.704;6.536;2022-10-16T12:17:57;11.20;;;1.10;;
58338;SDS011;48278;52.704;6.536;2022-10-16T12:20:25;9.02;;;0.73;;
58338;SDS011;48278;52.704;6.536;2022-10-16T12:22:59;11.52;;;0.90;;
58338;SDS011;48278;52.704;6.536;2022-10-16T12:27:55;13.75;;;1.13;;
58338;SDS011;48278;52.704;6.536;2022-10-16T12:30:35;7.25;;;0.57;;
58338;SDS011;48278;52.704;6.536;2022-10-16T12:33:05;9.13;;;0.70;;
58338;SDS011;48278;52.704;6.536;2022-10-16T12:35:35;12.63;;;1.00;;
58338;SDS011;48278;52.704;6.536;2022-10-16T12:38:30;9.20;;;0.90;;
58338;SDS011;48278;52.704;6.536;2022-10-16T12:43:59;6.15;;;0.70;;
58338;SDS011;48278;52.704;6.536;2022-10-16T12:51:58;7.65;;;0.60;;
58338;SDS011;48278;52.704;6.536;2022-10-16T12:59:32;7.07;;;1.05;;
58338;SDS011;48278;52.704;6.536;2022-10-16T13:12:52;15.13;;;1.20;;
58338;SDS011;48278;52.704;6.536;2022-10-16T13:15:31;8.43;;;0.63;;
58338;SDS011;48278;52.704;6.536;2022-10-16T13:26:09;11.20;;;1.08;;
58338;SDS011;48278;52.704;6.536;2022-10-16T13:29:00;12.32;;;0.90;;
58338;SDS011;48278;52.704;6.536;2022-10-16T13:31:26;10.23;;;0.80;;
58338;SDS011;48278;52.704;6.536;2022-10-16T13:33:55;4.95;;;0.63;;
58338;SDS011;48278;52.704;6.536;2022-10-16T13:36:28;7.40;;;0.68;;
58338;SDS011;48278;52.704;6.536;2022-10-16T13:39:15;7.00;;;0.80;;
58338;SDS011;48278;52.704;6.536;2022-10-16T13:42:09;8.45;;;0.85;;
58338;SDS011;48278;52.704;6.536;2022-10-16T13:44:44;11.40;;;0.60;;
58338;SDS011;48278;52.704;6.536;2022-10-16T13:47:22;8.82;;;0.60;;
58338;SDS011;48278;52.704;6.536;2022-10-16T13:52:27;7.85;;;0.85;;
58338;SDS011;48278;52.704;6.536;2022-10-16T13:54:56;7.30;;;0.75;;
58338;SDS011;48278;52.704;6.536;2022-10-16T13:57:24;3.83;;;0.50;;
58338;SDS011;48278;52.704;6.536;2022-10-16T13:59:50;7.50;;;0.80;;
58338;SDS011;48278;52.704;6.536;2022-10-16T14:02:21;6.88;;;0.60;;
58338;SDS011;48278;52.704;6.536;2022-10-16T14:04:47;7.07;;;0.95;;
58338;SDS011;48278;52.704;6.536;2022-10-16T14:07:26;7.85;;;0.70;;
58338;SDS011;48278;52.704;6.536;2022-10-16T14:09:59;10.30;;;0.60;;
58338;SDS011;48278;52.704;6.536;2022-10-16T14:12:28;9.30;;;0.80;;
58338;SDS011;48278;52.704;6.536;2022-10-16T14:14:55;11.55;;;0.60;;
58338;SDS011;48278;52.704;6.536;2022-10-16T14:17:27;7.60;;;0.63;;
58338;SDS011;48278;52.704;6.536;2022-10-16T14:19:58;7.80;;;0.80;;
58338;SDS011;48278;52.704;6.536;2022-10-16T14:25:02;6.55;;;0.80;;
58338;SDS011;48278;52.704;6.536;2022-10-16T14:28:31;8.45;;;0.70;;
58338;SDS011;48278;52.704;6.536;2022-10-16T14:30:48;7.38;;;0.80;;
58338;SDS011;48278;52.704;6.536;2022-10-16T14:36:01;10.02;;;1.17;;
58338;SDS011;48278;52.704;6.536;2022-10-16T14:38:27;11.32;;;1.20;;
58338;SDS011;48278;52.704;6.536;2022-10-16T14:40:54;7.40;;;0.80;;
58338;SDS011;48278;52.704;6.536;2022-10-16T14:45:59;8.60;;;1.45;;
58338;SDS011;48278;52.704;6.536;2022-10-16T14:48:29;7.32;;;1.30;;
58338;SDS011;48278;52.704;6.536;2022-10-16T14:50:57;10.25;;;1.02;;
58338;SDS011;48278;52.704;6.536;2022-10-16T14:53:22;6.57;;;1.10;;
58338;SDS011;48278;52.704;6.536;2022-10-16T14:55:52;6.38;;;1.10;;
58338;SDS011;48278;52.704;6.536;2022-10-16T14:58:19;10.00;;;1.00;;
58338;SDS011;48278;52.704;6.536;2022-10-16T15:00:47;6.78;;;0.75;;
58338;SDS011;48278;52.704;6.536;2022-10-16T15:03:14;8.57;;;0.88;;
58338;SDS011;48278;52.704;6.536;2022-10-16T15:05:39;11.53;;;1.10;;
58338;SDS011;48278;52.704;6.536;2022-10-16T15:08:05;8.07;;;1.00;;
58338;SDS011;48278;52.704;6.536;2022-10-16T15:10:33;6.83;;;0.90;;
58338;SDS011;48278;52.704;6.536;2022-10-16T15:13:03;7.32;;;0.85;;
58338;SDS011;48278;52.704;6.536;2022-10-16T15:15:33;8.65;;;0.98;;
58338;SDS011;48278;52.704;6.536;2022-10-16T15:18:05;9.15;;;1.40;;
58338;SDS011;48278;52.704;6.536;2022-10-16T15:20:35;11.02;;;1.00;;
58338;SDS011;48278;52.704;6.536;2022-10-16T15:23:04;8.77;;;1.52;;
58338;SDS011;48278;52.704;6.536;2022-10-16T15:25:45;7.63;;;0.90;;
58338;SDS011;48278;52.704;6.536;2022-10-16T15:28:12;9.23;;;1.23;;
58338;SDS011;48278;52.704;6.536;2022-10-16T15:30:40;8.02;;;1.00;;
58338;SDS011;48278;52.704;6.536;2022-10-16T15:33:10;9.38;;;0.93;;
58338;SDS011;48278;52.704;6.536;2022-10-16T15:35:38;8.13;;;0.98;;
58338;SDS011;48278;52.704;6.536;2022-10-16T15:38:04;10.35;;;1.00;;
58338;SDS011;48278;52.704;6.536;2022-10-16T15:40:30;8.20;;;1.00;;
58338;SDS011;48278;52.704;6.536;2022-10-16T15:42:55;6.22;;;0.80;;
58338;SDS011;48278;52.704;6.536;2022-10-16T15:45:21;7.97;;;1.00;;
58338;SDS011;48278;52.704;6.536;2022-10-16T15:47:47;8.32;;;0.70;;
58338;SDS011;48278;52.704;6.536;2022-10-16T15:50:13;7.45;;;1.25;;
58338;SDS011;48278;52.704;6.536;2022-10-16T15:52:40;6.07;;;1.02;;
58338;SDS011;48278;52.704;6.536;2022-10-16T15:55:07;6.25;;;0.80;;
58338;SDS011;48278;52.704;6.536;2022-10-16T15:57:34;10.02;;;1.00;;
58338;SDS011;48278;52.704;6.536;2022-10-16T16:00:03;8.85;;;1.25;;
58338;SDS011;48278;52.704;6.536;2022-10-16T16:02:33;12.27;;;1.13;;
58338;SDS011;48278;52.704;6.536;2022-10-16T16:04:58;8.38;;;1.10;;
58338;SDS011;48278;52.704;6.536;2022-10-16T16:07:27;8.95;;;1.40;;
58338;SDS011;48278;52.704;6.536;2022-10-16T16:09:53;7.15;;;1.20;;
58338;SDS011;48278;52.704;6.536;2022-10-16T16:12:19;9.80;;;1.20;;
58338;SDS011;48278;52.704;6.536;2022-10-16T16:14:45;7.35;;;1.10;;
58338;SDS011;48278;52.704;6.536;2022-10-16T16:17:13;4.90;;;1.20;;
58338;SDS011;48278;52.704;6.536;2022-10-16T16:19:39;5.93;;;1.30;;
58338;SDS011;48278;52.704;6.536;2022-10-16T16:22:05;12.85;;;3.75;;
58338;SDS011;48278;52.704;6.536;2022-10-16T16:24:30;12.52;;;3.08;;
58338;SDS011;48278;52.704;6.536;2022-10-16T16:26:56;10.25;;;2.33;;
58338;SDS011;48278;52.704;6.536;2022-10-16T16:29:22;11.45;;;2.95;;
58338;SDS011;48278;52.704;6.536;2022-10-16T16:31:47;10.05;;;3.10;;
58338;SDS011;48278;52.704;6.536;2022-10-16T16:34:13;11.07;;;3.28;;
58338;SDS011;48278;52.704;6.536;2022-10-16T16:36:40;11.15;;;2.80;;
58338;SDS011;48278;52.704;6.536;2022-10-16T16:39:06;10.85;;;3.58;;
58338;SDS011;48278;52.704;6.536;2022-10-16T16:41:32;12.07;;;4.68;;
58338;SDS011;48278;52.704;6.536;2022-10-16T16:44:02;8.02;;;2.90;;
58338;SDS011;48278;52.704;6.536;2022-10-16T16:46:31;10.45;;;2.17;;
58338;SDS011;48278;52.704;6.536;2022-10-16T16:48:58;7.57;;;2.22;;
58338;SDS011;48278;52.704;6.536;2022-10-16T16:51:24;13.95;;;2.63;;
58338;SDS011;48278;52.704;6.536;2022-10-16T16:53:50;12.23;;;2.72;;
58338;SDS011;48278;52.704;6.536;2022-10-16T16:56:19;9.60;;;2.92;;
58338;SDS011;48278;52.704;6.536;2022-10-16T16:58:46;14.23;;;3.00;;
58338;SDS011;48278;52.704;6.536;2022-10-16T17:01:13;10.75;;;2.22;;
58338;SDS011;48278;52.704;6.536;2022-10-16T17:03:41;12.18;;;3.10;;
58338;SDS011;48278;52.704;6.536;2022-10-16T17:06:11;11.05;;;3.03;;
58338;SDS011;48278;52.704;6.536;2022-10-16T17:08:39;9.05;;;2.85;;
58338;SDS011;48278;52.704;6.536;2022-10-16T17:13:36;14.85;;;3.42;;
58338;SDS011;48278;52.704;6.536;2022-10-16T17:16:03;14.30;;;5.90;;
58338;SDS011;48278;52.704;6.536;2022-10-16T17:18:30;161.18;;;65.25;;
58338;SDS011;48278;52.704;6.536;2022-10-16T17:21:00;99.00;;;44.85;;